createdAt,value
2017-04-20T00:00:18.803Z,1055.17
2017-04-20T00:01:18.789Z,1055.18
2017-04-20T00:02:18.773Z,1055.21
2017-04-20T00:03:18.759Z,1055.22
2017-04-20T00:04:18.744Z,1055.21
2017-04-20T00:05:18.728Z,1055.18
2017-04-20T00:06:18.714Z,1055.19
2017-04-20T00:07:18.699Z,1055.18
2017-04-20T00:08:18.685Z,1055.19
2017-04-20T00:09:18.669Z,1055.19
2017-04-20T00:10:18.655Z,1055.18
2017-04-20T00:11:18.641Z,1055.21
2017-04-20T00:12:18.626Z,1055.17
2017-04-20T00:13:18.610Z,1055.21
2017-04-20T00:14:18.596Z,1055.21
2017-04-20T00:15:18.581Z,1055.21
2017-04-20T00:16:18.566Z,1055.25
2017-04-20T00:17:18.550Z,1055.2
2017-04-20T00:18:18.536Z,1055.17
2017-04-20T00:19:18.521Z,1055.17
2017-04-20T00:20:18.506Z,1055.14
2017-04-20T00:21:18.492Z,1055.15
2017-04-20T00:22:18.477Z,1055.15
2017-04-20T00:23:18.462Z,1055.16
2017-04-20T00:24:18.446Z,1055.17
2017-04-20T00:25:18.431Z,1055.2
2017-04-20T00:26:18.416Z,1055.23
2017-04-20T00:27:18.401Z,1055.2
2017-04-20T00:28:18.386Z,1055.21
2017-04-20T00:29:18.371Z,1055.22
2017-04-20T00:30:18.358Z,1055.18
2017-04-20T00:31:18.341Z,1055.22
2017-04-20T00:32:18.326Z,1055.22
2017-04-20T00:33:18.311Z,1055.27
2017-04-20T00:34:18.297Z,1055.29
2017-04-20T00:35:18.282Z,1055.3
2017-04-20T00:36:18.267Z,1055.29
2017-04-20T00:37:18.252Z,1055.33
2017-04-20T00:38:18.236Z,1055.31
2017-04-20T00:39:18.221Z,1055.31
2017-04-20T00:40:18.208Z,1055.31
2017-04-20T00:41:18.192Z,1055.33
2017-04-20T00:42:18.176Z,1055.35
2017-04-20T00:43:18.161Z,1055.31
2017-04-20T00:44:18.149Z,1055.31
2017-04-20T00:45:18.130Z,1055.3
2017-04-20T00:46:18.115Z,1055.26
2017-04-20T00:47:18.100Z,1055.26
2017-04-20T00:48:18.085Z,1055.22
2017-04-20T00:49:18.070Z,1055.24
2017-04-20T00:50:18.055Z,1055.2
2017-04-20T00:51:18.040Z,1055.16
2017-04-20T00:52:18.025Z,1055.15
2017-04-20T00:53:18.009Z,1055.13
2017-04-20T00:54:17.994Z,1055.09
2017-04-20T00:55:17.979Z,1055.07
2017-04-20T00:56:17.964Z,1055.08
2017-04-20T00:57:17.948Z,1055.01
2017-04-20T00:58:17.933Z,1055.01
2017-04-20T00:59:17.919Z,1055.01
2017-04-20T01:00:17.903Z,1055.01
2017-04-20T01:01:17.888Z,1054.97
2017-04-20T01:02:17.873Z,1054.97
2017-04-20T01:03:17.858Z,1054.99
2017-04-20T01:04:17.842Z,1055
2017-04-20T01:05:17.827Z,1055.01
2017-04-20T01:06:17.812Z,1055.03
2017-04-20T01:07:17.799Z,1055.04
2017-04-20T01:08:17.781Z,1055.11
2017-04-20T01:09:17.766Z,1055.09
2017-04-20T01:10:17.751Z,1055.09
2017-04-20T01:11:17.735Z,1055.12
2017-04-20T01:12:17.720Z,1055.08
2017-04-20T01:13:17.705Z,1055.12
2017-04-20T01:14:17.689Z,1055.13
2017-04-20T01:15:17.674Z,1055.15
2017-04-20T01:16:17.659Z,1055.18
2017-04-20T01:17:17.644Z,1055.16
2017-04-20T01:18:17.627Z,1055.24
2017-04-20T01:19:17.612Z,1055.24
2017-04-20T01:20:17.597Z,1055.24
2017-04-20T01:21:17.582Z,1055.29
2017-04-20T01:22:17.567Z,1055.28
2017-04-20T01:23:17.551Z,1055.28
2017-04-20T01:24:17.536Z,1055.3
2017-04-20T01:25:17.521Z,1055.28
2017-04-20T01:26:17.505Z,1055.25
2017-04-20T01:27:17.490Z,1055.28
2017-04-20T01:28:17.474Z,1055.27
2017-04-20T01:29:17.459Z,1055.26
2017-04-20T01:30:17.443Z,1055.29
2017-04-20T01:31:17.430Z,1055.28
2017-04-20T01:32:17.713Z,1055.29
2017-04-20T01:33:17.397Z,1055.31
2017-04-20T01:34:17.382Z,1055.34
2017-04-20T01:35:17.368Z,1055.32
2017-04-20T01:36:17.351Z,1055.33
2017-04-20T01:37:17.586Z,1055.35
2017-04-20T01:38:17.320Z,1055.37
2017-04-20T01:39:17.305Z,1055.43
2017-04-20T01:40:17.289Z,1055.42
2017-04-20T01:41:17.274Z,1055.45
2017-04-20T01:42:17.559Z,1055.48
2017-04-20T01:43:17.243Z,1055.47
2017-04-20T01:44:17.227Z,1055.5
2017-04-20T01:45:17.212Z,1055.44
2017-04-20T01:46:17.197Z,1055.49
2017-04-20T01:47:17.432Z,1055.48
2017-04-20T01:48:17.166Z,1055.47
2017-04-20T01:49:17.149Z,1055.44
2017-04-20T01:50:17.135Z,1055.39
2017-04-20T01:51:17.119Z,1055.43
2017-04-20T01:52:17.102Z,1055.47
2017-04-20T01:53:17.089Z,1055.44
2017-04-20T01:54:17.073Z,1055.43
2017-04-20T01:55:17.056Z,1055.45
2017-04-20T01:56:17.041Z,1055.49
2017-04-20T01:57:17.026Z,1055.51
2017-04-20T01:58:17.011Z,1055.5
2017-04-20T01:59:16.995Z,1055.5
2017-04-20T02:00:16.979Z,1055.46
2017-04-20T02:01:16.964Z,1055.51
2017-04-20T02:02:16.947Z,1055.51
2017-04-20T02:03:16.932Z,1055.49
2017-04-20T02:04:16.918Z,1055.46
2017-04-20T02:05:16.902Z,1055.5
2017-04-20T02:06:16.885Z,1055.55
2017-04-20T02:07:16.870Z,1055.53
2017-04-20T02:08:16.854Z,1055.54
2017-04-20T02:09:16.839Z,1055.55
2017-04-20T02:10:16.824Z,1055.48
2017-04-20T02:11:16.810Z,1055.45
2017-04-20T02:12:16.794Z,1055.49
2017-04-20T02:13:16.778Z,1055.54
2017-04-20T02:14:16.762Z,1055.49
2017-04-20T02:15:16.747Z,1055.54
2017-04-20T02:16:16.731Z,1055.56
2017-04-20T02:17:16.715Z,1055.61
2017-04-20T02:18:16.700Z,1055.68
2017-04-20T02:19:16.684Z,1055.69
2017-04-20T02:20:16.668Z,1055.73
2017-04-20T02:21:16.652Z,1055.67
2017-04-20T02:22:16.637Z,1055.69
2017-04-20T02:23:16.622Z,1055.67
2017-04-20T02:24:16.606Z,1055.68
2017-04-20T02:25:16.590Z,1055.68
2017-04-20T02:26:16.575Z,1055.68
2017-04-20T02:27:16.559Z,1055.65
2017-04-20T02:28:16.544Z,1055.66
2017-04-20T02:29:16.528Z,1055.67
2017-04-20T02:30:16.512Z,1055.72
2017-04-20T02:31:16.496Z,1055.77
2017-04-20T02:32:16.481Z,1055.77
2017-04-20T02:33:16.465Z,1055.84
2017-04-20T02:34:16.450Z,1055.77
2017-04-20T02:35:16.433Z,1055.79
2017-04-20T02:36:16.418Z,1055.77
2017-04-20T02:37:16.403Z,1055.78
2017-04-20T02:38:16.387Z,1055.77
2017-04-20T02:39:16.377Z,1055.8
2017-04-20T02:40:16.354Z,1055.81
2017-04-20T02:41:16.340Z,1055.83
2017-04-20T02:42:16.323Z,1055.8
2017-04-20T02:43:16.308Z,1055.82
2017-04-20T02:44:16.292Z,1055.84
2017-04-20T02:45:16.278Z,1055.79
2017-04-20T02:46:16.261Z,1055.83
2017-04-20T02:47:16.247Z,1055.84
2017-04-20T02:48:16.230Z,1055.8
2017-04-20T02:49:16.215Z,1055.85
2017-04-20T02:50:16.198Z,1055.87
2017-04-20T02:51:16.183Z,1055.86
2017-04-20T02:52:16.167Z,1055.9
2017-04-20T02:53:16.150Z,1055.92
2017-04-20T02:54:16.135Z,1055.9
2017-04-20T02:55:16.120Z,1055.84
2017-04-20T02:56:16.104Z,1055.86
2017-04-20T02:57:16.088Z,1055.87
2017-04-20T02:58:16.073Z,1055.89
2017-04-20T02:59:16.057Z,1055.93
2017-04-20T03:00:16.042Z,1055.89
2017-04-20T03:01:16.025Z,1055.92
2017-04-20T03:02:16.010Z,1055.92
2017-04-20T03:03:15.995Z,1055.93
2017-04-20T03:04:15.978Z,1055.94
2017-04-20T03:05:15.962Z,1055.94
2017-04-20T03:06:15.946Z,1055.9
2017-04-20T03:07:15.932Z,1055.92
2017-04-20T03:08:15.915Z,1055.92
2017-04-20T03:09:15.899Z,1055.89
2017-04-20T03:10:15.884Z,1055.9
2017-04-20T03:11:15.872Z,1055.89
2017-04-20T03:12:15.852Z,1055.92
2017-04-20T03:13:15.837Z,1055.93
2017-04-20T03:14:15.821Z,1055.92
2017-04-20T03:15:15.805Z,1055.92
2017-04-20T03:16:15.789Z,1055.97
2017-04-20T03:17:15.773Z,1055.95
2017-04-20T03:18:15.758Z,1055.91
2017-04-20T03:19:15.742Z,1055.92
2017-04-20T03:20:15.743Z,1055.9
2017-04-20T03:21:15.711Z,1055.93
2017-04-20T03:22:15.694Z,1055.93
2017-04-20T03:23:15.678Z,1055.91
2017-04-20T03:24:15.663Z,1055.91
2017-04-20T03:25:15.849Z,1055.92
2017-04-20T03:26:15.630Z,1055.94
2017-04-20T03:27:15.615Z,1055.89
2017-04-20T03:28:15.599Z,1055.93
2017-04-20T03:29:15.583Z,1055.93
2017-04-20T03:30:15.567Z,1055.97
2017-04-20T03:31:15.551Z,1055.97
2017-04-20T03:32:15.536Z,1055.98
2017-04-20T03:33:15.519Z,1056
2017-04-20T03:34:15.503Z,1055.94
2017-04-20T03:35:15.488Z,1055.94
2017-04-20T03:36:15.471Z,1055.9
2017-04-20T03:37:15.455Z,1055.88
2017-04-20T03:38:15.741Z,1055.89
2017-04-20T03:39:15.424Z,1055.88
2017-04-20T03:40:15.409Z,1055.86
2017-04-20T03:41:15.392Z,1055.81
2017-04-20T03:42:15.376Z,1055.81
2017-04-20T03:43:15.610Z,1055.79
2017-04-20T03:44:15.344Z,1055.8
2017-04-20T03:45:15.332Z,1055.83
2017-04-20T03:46:15.313Z,1055.83
2017-04-20T03:47:15.297Z,1055.84
2017-04-20T03:48:15.531Z,1055.81
2017-04-20T03:49:15.265Z,1055.8
2017-04-20T03:50:15.250Z,1055.74
2017-04-20T03:51:15.234Z,1055.73
2017-04-20T03:52:15.217Z,1055.75
2017-04-20T03:53:15.452Z,1055.74
2017-04-20T03:54:15.186Z,1055.71
2017-04-20T03:55:15.169Z,1055.67
2017-04-20T03:56:15.153Z,1055.73
2017-04-20T03:57:15.137Z,1055.68
2017-04-20T03:58:15.376Z,1055.67
2017-04-20T03:59:15.106Z,1055.65
2017-04-20T04:00:15.090Z,1055.63
2017-04-20T04:01:15.078Z,1055.61
2017-04-20T04:02:15.059Z,1055.6
2017-04-20T04:03:15.043Z,1055.52
2017-04-20T04:04:15.026Z,1055.56
2017-04-20T04:05:15.011Z,1055.57
2017-04-20T04:06:14.994Z,1055.51
2017-04-20T04:07:14.979Z,1055.5
2017-04-20T04:08:14.963Z,1055.52
2017-04-20T04:09:14.948Z,1055.52
2017-04-20T04:10:14.931Z,1055.46
2017-04-20T04:11:14.916Z,1055.42
2017-04-20T04:12:14.900Z,1055.4
2017-04-20T04:13:14.884Z,1055.43
2017-04-20T04:14:14.868Z,1055.39
2017-04-20T04:15:14.856Z,1055.38
2017-04-20T04:16:14.837Z,1055.27
2017-04-20T04:17:14.820Z,1055.22
2017-04-20T04:18:14.805Z,1055.15
2017-04-20T04:19:14.789Z,1055.01
2017-04-20T04:20:14.774Z,1054.91
2017-04-20T04:21:14.757Z,1054.85
2017-04-20T04:22:14.742Z,1054.78
2017-04-20T04:23:14.727Z,1054.65
2017-04-20T04:24:14.712Z,1054.5
2017-04-20T04:25:14.696Z,1054.31
2017-04-20T04:26:14.680Z,1054.17
2017-04-20T04:27:14.665Z,1054.02
2017-04-20T04:28:14.649Z,1053.83
2017-04-20T04:29:14.634Z,1053.66
2017-04-20T04:30:14.620Z,1053.46
2017-04-20T04:31:14.606Z,1053.32
2017-04-20T04:32:14.589Z,1053.02
2017-04-20T04:33:14.576Z,1052.87
2017-04-20T04:34:14.562Z,1052.72
2017-04-20T04:35:14.548Z,1052.56
2017-04-20T04:36:14.533Z,1052.36
2017-04-20T04:37:14.520Z,1052.17
2017-04-20T04:38:14.507Z,1051.97
2017-04-20T04:39:14.492Z,1051.82
2017-04-20T04:40:14.480Z,1051.65
2017-04-20T04:41:14.467Z,1051.42
2017-04-20T04:42:14.454Z,1051.23
2017-04-20T04:43:14.441Z,1051.11
2017-04-20T04:44:14.428Z,1050.97
2017-04-20T04:45:14.418Z,1050.81
2017-04-20T04:46:14.406Z,1050.7
2017-04-20T04:47:14.394Z,1050.66
2017-04-20T04:48:14.385Z,1050.49
2017-04-20T04:49:14.372Z,1050.33
2017-04-20T04:50:14.360Z,1050.18
2017-04-20T04:51:14.349Z,1050.12
2017-04-20T04:52:14.339Z,1049.99
2017-04-20T04:53:14.329Z,1049.88
2017-04-20T04:54:14.318Z,1049.69
2017-04-20T04:55:14.308Z,1049.58
2017-04-20T04:56:14.300Z,1049.49
2017-04-20T04:57:14.290Z,1049.41
2017-04-20T04:58:14.280Z,1049.35
2017-04-20T04:59:14.271Z,1049.23
2017-04-20T05:00:14.263Z,1049.08
2017-04-20T05:01:14.253Z,1048.92
2017-04-20T05:02:14.245Z,1048.8
2017-04-20T05:03:14.236Z,1048.69
2017-04-20T05:04:14.229Z,1048.63
2017-04-20T05:05:14.220Z,1048.5
2017-04-20T05:06:14.213Z,1048.37
2017-04-20T05:07:14.206Z,1048.22
2017-04-20T05:08:14.198Z,1048.09
2017-04-20T05:09:14.191Z,1047.97
2017-04-20T05:10:14.184Z,1047.91
2017-04-20T05:11:14.177Z,1047.88
2017-04-20T05:12:14.169Z,1047.79
2017-04-20T05:13:14.164Z,1047.74
2017-04-20T05:14:14.158Z,1047.57
2017-04-20T05:15:14.152Z,1047.48
2017-04-20T05:16:14.145Z,1047.36
2017-04-20T05:17:14.139Z,1047.21
2017-04-20T05:18:14.135Z,1047.22
2017-04-20T05:19:14.131Z,1047.22
2017-04-20T05:20:14.124Z,1047.15
2017-04-20T05:21:14.119Z,1047.05
2017-04-20T05:22:14.115Z,1046.92
2017-04-20T05:23:14.110Z,1046.79
2017-04-20T05:24:14.104Z,1046.62
2017-04-20T05:25:14.101Z,1046.51
2017-04-20T05:26:14.096Z,1046.39
2017-04-20T05:27:14.091Z,1046.37
2017-04-20T05:28:14.088Z,1046.3
2017-04-20T05:29:14.084Z,1046.24
2017-04-20T05:30:14.079Z,1046.19
2017-04-20T05:31:14.076Z,1046.03
2017-04-20T05:32:14.077Z,1045.9
2017-04-20T05:33:14.069Z,1045.73
2017-04-20T05:34:14.065Z,1045.65
2017-04-20T05:35:14.063Z,1045.58
2017-04-20T05:37:14.057Z,1045.75
2017-04-20T05:38:14.053Z,1045.6
2017-04-20T05:39:14.051Z,1045.6
2017-04-20T05:40:14.050Z,1045.59
2017-04-20T05:41:14.046Z,1045.6
2017-04-20T05:42:14.044Z,1045.61
2017-04-20T05:43:14.042Z,1045.76
2017-04-20T05:44:14.040Z,1045.77
2017-04-20T05:45:14.036Z,1045.49
2017-04-20T05:46:14.035Z,1045.45
2017-04-20T05:47:14.033Z,1045.36
2017-04-20T05:48:14.031Z,1045.37
2017-04-20T05:49:14.280Z,1045.47
2017-04-20T05:50:14.028Z,1045.6
2017-04-20T05:51:14.026Z,1045.7
2017-04-20T05:52:14.026Z,1045.55
2017-04-20T05:53:14.024Z,1045.5
2017-04-20T05:54:14.023Z,1045.71
2017-04-20T05:55:14.022Z,1045.98
2017-04-20T05:56:14.020Z,1046.18
2017-04-20T05:57:14.019Z,1046.16
2017-04-20T05:58:14.017Z,1046.25
2017-04-20T05:59:14.016Z,1045.96
2017-04-20T06:00:14.014Z,1045.65
2017-04-20T06:01:14.013Z,1045.39
2017-04-20T06:02:14.012Z,1045.37
2017-04-20T06:03:14.011Z,1045.31
2017-04-20T06:04:14.008Z,1045.2
2017-04-20T06:05:14.008Z,1045.02
2017-04-20T06:06:14.006Z,1044.8
2017-04-20T06:07:14.005Z,1044.72
2017-04-20T06:08:14.004Z,1044.61
2017-04-20T06:09:14.003Z,1044.61
2017-04-20T06:10:14.002Z,1044.61
2017-04-20T06:11:14.001Z,1044.59
2017-04-20T06:12:14.001Z,1044.66
2017-04-20T06:13:14.001Z,1044.78
2017-04-20T06:14:13.999Z,1044.98
2017-04-20T06:15:13.998Z,1045.14
2017-04-20T06:16:13.998Z,1045.37
2017-04-20T06:17:13.996Z,1045.63
2017-04-20T06:18:13.995Z,1045.85
2017-04-20T06:19:13.995Z,1046.08
2017-04-20T06:20:13.994Z,1046.1
2017-04-20T06:21:13.993Z,1046.2
2017-04-20T06:22:13.991Z,1046.19
2017-04-20T06:23:13.994Z,1045.98
2017-04-20T06:24:13.988Z,1045.79
2017-04-20T06:25:13.986Z,1045.52
2017-04-20T06:26:13.985Z,1045.22
2017-04-20T06:27:13.983Z,1045.08
2017-04-20T06:28:13.982Z,1044.9
2017-04-20T06:29:13.980Z,1044.81
2017-04-20T06:30:13.978Z,1044.6
2017-04-20T06:31:13.977Z,1044.52
2017-04-20T06:32:13.977Z,1044.29
2017-04-20T06:33:13.975Z,1044.07
2017-04-20T06:34:13.974Z,1043.95
2017-04-20T06:36:13.971Z,1044.01
2017-04-20T06:38:13.970Z,1044.1
2017-04-20T06:39:13.970Z,1044.06
2017-04-20T06:40:13.969Z,1044
2017-04-20T06:41:13.969Z,1043.97
2017-04-20T06:42:13.969Z,1043.95
2017-04-20T06:43:13.969Z,1043.9
2017-04-20T06:44:13.969Z,1043.88
2017-04-20T06:45:13.969Z,1043.87
2017-04-20T06:46:13.970Z,1043.82
2017-04-20T06:47:13.970Z,1043.73
2017-04-20T06:48:13.970Z,1043.58
2017-04-20T06:49:13.971Z,1043.51
2017-04-20T06:50:13.973Z,1043.61
2017-04-20T06:51:13.974Z,1043.5
2017-04-20T06:52:13.976Z,1043.5
2017-04-20T06:53:13.975Z,1043.18
2017-04-20T06:54:13.977Z,1043.55
2017-04-20T06:55:13.979Z,1043.32
2017-04-20T06:56:14.004Z,1043.26
2017-04-20T06:57:13.982Z,1043.23
2017-04-20T06:58:13.984Z,1043.35
2017-04-20T06:59:13.985Z,1043.24
2017-04-20T07:00:13.987Z,1043.06
2017-04-20T07:01:13.989Z,1042.9
2017-04-20T07:02:13.991Z,1042.61
2017-04-20T07:03:13.993Z,1042.22
2017-04-20T07:04:13.995Z,1041.98
2017-04-20T07:05:13.997Z,1041.88
2017-04-20T07:06:14.000Z,1041.92
2017-04-20T07:07:14.003Z,1041.89
2017-04-20T07:08:14.006Z,1041.92
2017-04-20T07:09:14.009Z,1041.82
2017-04-20T07:10:14.013Z,1041.87
2017-04-20T07:11:14.016Z,1041.79
2017-04-20T07:12:14.021Z,1041.92
2017-04-20T07:13:14.023Z,1042.04
2017-04-20T07:14:14.029Z,1042.08
2017-04-20T07:15:14.032Z,1042.08
2017-04-20T07:16:14.036Z,1041.98
2017-04-20T07:17:14.041Z,1041.93
2017-04-20T07:18:14.045Z,1041.94
2017-04-20T07:19:14.049Z,1041.99
2017-04-20T07:20:14.053Z,1042.03
2017-04-20T07:21:14.058Z,1042.04
2017-04-20T07:22:14.063Z,1042.11
2017-04-20T07:23:14.068Z,1042.26
2017-04-20T07:24:14.074Z,1042.33
2017-04-20T07:25:14.078Z,1042.3
2017-04-20T07:26:14.084Z,1042.29
2017-04-20T07:27:14.088Z,1042.31
2017-04-20T07:28:14.094Z,1042.41
2017-04-20T07:29:14.098Z,1042.75
2017-04-20T07:30:14.105Z,1043.07
2017-04-20T07:31:14.113Z,1043.3
2017-04-20T07:32:14.115Z,1043.41
2017-04-20T07:33:14.122Z,1043.31
2017-04-20T07:34:14.126Z,1043.18
2017-04-20T07:35:14.132Z,1042.85
2017-04-20T07:36:14.137Z,1042.5
2017-04-20T07:37:14.142Z,1042.11
2017-04-20T07:38:14.147Z,1041.8
2017-04-20T07:39:14.153Z,1041.67
2017-04-20T07:40:14.159Z,1041.53
2017-04-20T07:41:14.165Z,1041.6
2017-04-20T07:42:14.170Z,1041.65
2017-04-20T07:43:14.177Z,1041.62
2017-04-20T07:44:14.183Z,1041.51
2017-04-20T07:45:14.193Z,1041.3
2017-04-20T07:46:14.196Z,1041.11
2017-04-20T07:47:14.203Z,1041.02
2017-04-20T07:48:14.210Z,1040.94
2017-04-20T07:49:14.217Z,1040.76
2017-04-20T07:50:14.225Z,1040.55
2017-04-20T07:51:14.232Z,1040.36
2017-04-20T07:52:14.239Z,1040.12
2017-04-20T07:53:14.246Z,1039.93
2017-04-20T07:54:14.253Z,1039.9
2017-04-20T07:55:14.261Z,1039.8
2017-04-20T07:56:14.269Z,1039.84
2017-04-20T07:57:14.277Z,1040
2017-04-20T07:58:14.285Z,1040.74
2017-04-20T07:59:14.293Z,1040.43
2017-04-20T08:00:14.300Z,1040.12
2017-04-20T08:01:14.308Z,1039.85
2017-04-20T08:02:14.318Z,1039.79
2017-04-20T08:03:14.324Z,1040.14
2017-04-20T08:04:14.332Z,1040.56
2017-04-20T08:05:14.340Z,1040.94
2017-04-20T08:06:14.347Z,1041.53
2017-04-20T08:07:14.356Z,1041.82
2017-04-20T08:08:14.361Z,1043.35
2017-04-20T08:09:14.369Z,1043.29
2017-04-20T08:10:14.375Z,1043.27
2017-04-20T08:11:14.381Z,1043.19
2017-04-20T08:12:14.387Z,1043.13
2017-04-20T08:13:14.394Z,1043.03
2017-04-20T08:14:14.399Z,1043.39
2017-04-20T08:15:14.404Z,1044.3
2017-04-20T08:16:14.412Z,1044.9
2017-04-20T08:17:14.416Z,1044.99
2017-04-20T08:18:14.420Z,1044.58
2017-04-20T08:19:14.424Z,1044.17
2017-04-20T08:20:14.432Z,1043.81
2017-04-20T08:21:14.434Z,1043.5
2017-04-20T08:22:14.436Z,1043.32
2017-04-20T08:23:14.440Z,1043.24
2017-04-20T08:24:14.445Z,1043.19
2017-04-20T08:25:14.448Z,1043.09
2017-04-20T08:26:14.450Z,1043.02
2017-04-20T08:27:14.454Z,1043.15
2017-04-20T08:28:14.458Z,1043.89
2017-04-20T08:29:14.462Z,1044.88
2017-04-20T08:30:14.465Z,1045.78
2017-04-20T08:31:14.467Z,1046.5
2017-04-20T08:32:14.470Z,1047.21
2017-04-20T08:33:14.471Z,1047.83
2017-04-20T08:34:14.473Z,1048.31
2017-04-20T08:35:14.474Z,1048.71
2017-04-20T08:36:14.474Z,1049
2017-04-20T08:37:14.474Z,1049.31
2017-04-20T08:38:14.474Z,1049.64
2017-04-20T08:39:14.474Z,1049.93
2017-04-20T08:40:14.471Z,1050.09
2017-04-20T08:41:14.470Z,1050.23
2017-04-20T08:42:14.467Z,1050.26
2017-04-20T08:43:14.464Z,1050.3
2017-04-20T08:44:14.463Z,1050.38
2017-04-20T08:45:14.459Z,1050.55
2017-04-20T08:46:14.456Z,1050.75
2017-04-20T08:47:14.453Z,1050.83
2017-04-20T08:48:14.448Z,1050.84
2017-04-20T08:49:14.444Z,1050.82
2017-04-20T08:50:14.440Z,1050.81
2017-04-20T08:51:14.435Z,1050.73
2017-04-20T08:52:14.432Z,1050.69
2017-04-20T08:53:14.426Z,1050.68
2017-04-20T08:54:14.422Z,1050.75
2017-04-20T08:55:14.416Z,1050.8
2017-04-20T08:56:14.411Z,1050.77
2017-04-20T08:57:14.406Z,1050.93
2017-04-20T08:58:14.400Z,1051.02
2017-04-20T08:59:14.395Z,1051.19
2017-04-20T09:00:14.689Z,1051.29
2017-04-20T09:01:14.384Z,1051.29
2017-04-20T09:02:14.376Z,1051.27
2017-04-20T09:03:14.371Z,1051.3
2017-04-20T09:04:14.365Z,1051.21
2017-04-20T09:05:14.610Z,1051.1
2017-04-20T09:06:14.352Z,1051.07
2017-04-20T09:07:14.347Z,1051.04
2017-04-20T09:08:14.341Z,1050.96
2017-04-20T09:09:14.335Z,1050.95
2017-04-20T09:10:14.578Z,1050.98
2017-04-20T09:11:14.322Z,1051.12
2017-04-20T09:12:14.316Z,1051.23
2017-04-20T09:13:14.308Z,1051.19
2017-04-20T09:14:14.303Z,1051.24
2017-04-20T09:15:14.596Z,1051.11
2017-04-20T09:16:14.290Z,1051.08
2017-04-20T09:17:14.282Z,1050.98
2017-04-20T09:18:14.275Z,1050.99
2017-04-20T09:19:14.269Z,1051.02
2017-04-20T09:20:14.613Z,1051
2017-04-20T09:21:14.255Z,1050.95
2017-04-20T09:22:14.248Z,1050.99
2017-04-20T09:23:14.243Z,1051.02
2017-04-20T09:24:14.235Z,1051.11
2017-04-20T09:25:14.529Z,1051.15
2017-04-20T09:26:14.225Z,1051.33
2017-04-20T09:27:14.217Z,1051.39
2017-04-20T09:28:14.209Z,1051.41
2017-04-20T09:29:14.202Z,1051.45
2017-04-20T09:30:14.546Z,1051.41
2017-04-20T09:31:14.189Z,1051.33
2017-04-20T09:32:14.181Z,1051.19
2017-04-20T09:33:14.174Z,1051.13
2017-04-20T09:34:14.169Z,1051.14
2017-04-20T09:35:14.412Z,1051.17
2017-04-20T09:36:14.152Z,1051.13
2017-04-20T09:37:14.146Z,1051.09
2017-04-20T09:38:14.139Z,1051.03
2017-04-20T09:39:14.132Z,1051.06
2017-04-20T09:40:14.376Z,1050.99
2017-04-20T09:41:14.119Z,1050.95
2017-04-20T09:42:14.112Z,1050.9
2017-04-20T09:43:14.105Z,1050.84
2017-04-20T09:44:14.101Z,1050.76
2017-04-20T09:45:14.093Z,1050.63
2017-04-20T09:46:14.085Z,1050.49
2017-04-20T09:47:14.078Z,1050.36
2017-04-20T09:48:14.072Z,1050.27
2017-04-20T09:49:14.065Z,1050.07
2017-04-20T09:50:14.058Z,1049.92
2017-04-20T09:51:14.052Z,1049.79
2017-04-20T09:52:14.047Z,1049.66
2017-04-20T09:53:14.041Z,1049.64
2017-04-20T09:54:14.033Z,1049.72
2017-04-20T09:55:14.028Z,1049.75
2017-04-20T09:56:14.021Z,1049.96
2017-04-20T09:57:14.014Z,1049.91
2017-04-20T09:58:14.009Z,1049.93
2017-04-20T09:59:14.003Z,1050.06
2017-04-20T10:00:13.998Z,1050.1
2017-04-20T10:01:13.990Z,1050.34
2017-04-20T10:02:13.985Z,1050.51
2017-04-20T10:03:13.980Z,1050.59
2017-04-20T10:04:13.974Z,1050.69
2017-04-20T10:05:13.968Z,1050.71
2017-04-20T10:06:13.962Z,1050.63
2017-04-20T10:07:13.957Z,1050.53
2017-04-20T10:08:13.950Z,1050.44
2017-04-20T10:09:13.944Z,1050.3
2017-04-20T10:10:13.955Z,1050.14
2017-04-20T10:11:13.931Z,1049.98
2017-04-20T10:12:13.925Z,1049.87
2017-04-20T10:13:13.919Z,1049.84
2017-04-20T10:14:13.915Z,1049.79
2017-04-20T10:15:13.907Z,1049.82
2017-04-20T10:16:13.901Z,1049.78
2017-04-20T10:17:13.895Z,1049.74
2017-04-20T10:18:13.889Z,1049.75
2017-04-20T10:19:13.883Z,1049.79
2017-04-20T10:20:13.877Z,1049.96
2017-04-20T10:21:13.871Z,1050.11
2017-04-20T10:22:13.865Z,1050.32
2017-04-20T10:23:13.857Z,1050.38
2017-04-20T10:24:13.853Z,1050.45
2017-04-20T10:25:13.846Z,1050.43
2017-04-20T10:26:13.839Z,1050.4
2017-04-20T10:27:13.834Z,1050.42
2017-04-20T10:28:13.828Z,1050.31
2017-04-20T10:29:13.821Z,1050.3
2017-04-20T10:30:13.816Z,1050.23
2017-04-20T10:31:13.809Z,1050.14
2017-04-20T10:32:13.803Z,1050.01
2017-04-20T10:33:13.796Z,1049.88
2017-04-20T10:34:13.789Z,1049.68
2017-04-20T10:35:13.784Z,1049.5
2017-04-20T10:36:13.779Z,1049.24
2017-04-20T10:37:13.771Z,1049
2017-04-20T10:38:13.765Z,1048.9
2017-04-20T10:39:13.760Z,1048.87
2017-04-20T10:40:13.755Z,1048.86
2017-04-20T10:41:13.747Z,1048.88
2017-04-20T10:42:13.742Z,1048.87
2017-04-20T10:43:13.737Z,1048.91
2017-04-20T10:44:13.733Z,1048.89
2017-04-20T10:45:13.725Z,1049.02
2017-04-20T10:46:13.723Z,1049
2017-04-20T10:47:13.714Z,1048.99
2017-04-20T10:48:13.709Z,1048.91
2017-04-20T10:49:13.703Z,1048.91
2017-04-20T10:50:13.699Z,1048.88
2017-04-20T10:51:13.693Z,1048.9
2017-04-20T10:52:13.687Z,1048.89
2017-04-20T10:53:13.682Z,1048.94
2017-04-20T10:54:13.676Z,1048.82
2017-04-20T10:55:13.672Z,1048.83
2017-04-20T10:56:13.666Z,1048.84
2017-04-20T10:57:13.660Z,1048.78
2017-04-20T10:58:13.655Z,1048.77
2017-04-20T10:59:13.649Z,1048.75
2017-04-20T11:00:13.644Z,1048.7
2017-04-20T11:01:13.639Z,1048.73
2017-04-20T11:02:13.635Z,1048.71
2017-04-20T11:03:13.629Z,1048.8
2017-04-20T11:04:13.624Z,1048.85
2017-04-20T11:05:13.618Z,1049.06
2017-04-20T11:06:13.615Z,1049.23
2017-04-20T11:07:13.607Z,1049.35
2017-04-20T11:08:13.602Z,1049.44
2017-04-20T11:09:13.598Z,1049.62
2017-04-20T11:10:13.591Z,1049.64
2017-04-20T11:11:13.586Z,1049.66
2017-04-20T11:12:13.581Z,1049.62
2017-04-20T11:13:13.575Z,1049.66
2017-04-20T11:14:13.568Z,1049.58
2017-04-20T11:15:13.563Z,1049.68
2017-04-20T11:16:13.557Z,1049.64
2017-04-20T11:17:13.552Z,1049.51
2017-04-20T11:18:13.545Z,1049.46
2017-04-20T11:19:13.540Z,1049.31
2017-04-20T11:20:13.535Z,1049.28
2017-04-20T11:21:13.528Z,1049.13
2017-04-20T11:22:13.521Z,1049.18
2017-04-20T11:23:13.517Z,1049.09
2017-04-20T11:24:13.512Z,1049.13
2017-04-20T11:25:13.505Z,1049.09
2017-04-20T11:26:13.498Z,1049.04
2017-04-20T11:27:13.493Z,1048.96
2017-04-20T11:28:13.487Z,1048.93
2017-04-20T11:29:13.481Z,1048.88
2017-04-20T11:30:13.476Z,1048.74
2017-04-20T11:31:13.471Z,1048.6
2017-04-20T11:32:13.463Z,1048.56
2017-04-20T11:33:13.459Z,1048.58
2017-04-20T11:34:13.453Z,1048.58
2017-04-20T11:35:13.447Z,1048.5
2017-04-20T11:36:13.742Z,1048.54
2017-04-20T11:37:13.436Z,1048.56
2017-04-20T11:38:13.429Z,1048.6
2017-04-20T11:39:13.426Z,1048.69
2017-04-20T11:40:13.420Z,1048.77
2017-04-20T11:41:13.715Z,1048.89
2017-04-20T11:42:13.409Z,1048.9
2017-04-20T11:43:13.403Z,1048.85
2017-04-20T11:44:13.397Z,1048.82
2017-04-20T11:45:13.393Z,1048.69
2017-04-20T11:46:13.737Z,1048.65
2017-04-20T11:47:13.381Z,1048.6
2017-04-20T11:48:13.376Z,1048.57
2017-04-20T11:49:13.369Z,1048.57
2017-04-20T11:50:13.364Z,1048.58
2017-04-20T11:51:13.658Z,1048.53
2017-04-20T11:52:13.354Z,1048.6
2017-04-20T11:53:13.348Z,1048.5
2017-04-20T11:54:13.342Z,1048.26
2017-04-20T11:55:13.336Z,1048.17
2017-04-20T11:56:13.581Z,1048
2017-04-20T11:57:13.326Z,1047.89
2017-04-20T11:58:13.320Z,1047.79
2017-04-20T11:59:13.314Z,1047.68
2017-04-20T12:00:13.311Z,1047.6
2017-04-20T12:01:13.554Z,1047.56
2017-04-20T12:02:13.298Z,1047.58
2017-04-20T12:03:13.294Z,1047.55
2017-04-20T12:04:13.289Z,1047.63
2017-04-20T12:05:13.284Z,1047.74
2017-04-20T12:06:13.579Z,1047.68
2017-04-20T12:07:13.273Z,1047.79
2017-04-20T12:08:13.269Z,1047.83
2017-04-20T12:09:13.262Z,1047.91
2017-04-20T12:10:13.258Z,1048.03
2017-04-20T12:11:13.554Z,1048.04
2017-04-20T12:12:13.248Z,1048.32